Terminal Aerodrome Forecast
Issued by NWS

Current Version | Previous Version | Text Only | Print | Product List | Glossary Off
Versions: 1 2 3 4 5 6 7 8 9 10 11 12 13 14

000
FTUS41 KPBZ 221120
TAFMGW
TAF
KMGW 221120Z 2212/2312 34010G20KT P6SM BKN040
     FM221600 34012G20KT P6SM SKC
     FM222300 VRB05KT P6SM SKC=

USA.gov is the U.S. government's official web portal to all federal, state and local government web resources and services.